sensor_id;sensor_type;location;lat;lon;timestamp;pressure;altitude;pressure_sealevel;temperature;humidity
6150;BME280;3106;42.670;23.318;2022-10-30T00:01:01;95202.09;;;10.62;96.75
6150;BME280;3106;42.670;23.318;2022-10-30T00:03:28;95192.69;;;10.56;96.68
6150;BME280;3106;42.670;23.318;2022-10-30T00:05:55;95198.00;;;10.64;96.93
6150;BME280;3106;42.670;23.318;2022-10-30T00:08:22;95210.53;;;10.72;97.07
6150;BME280;3106;42.670;23.318;2022-10-30T00:10:51;95203.94;;;10.70;96.56
6150;BME280;3106;42.670;23.318;2022-10-30T00:13:18;95198.59;;;10.70;96.83
6150;BME280;3106;42.670;23.318;2022-10-30T00:15:48;95169.78;;;10.47;96.99
6150;BME280;3106;42.670;23.318;2022-10-30T00:18:16;95189.22;;;10.55;96.97
6150;BME280;3106;42.670;23.318;2022-10-30T00:20:43;95196.19;;;10.48;97.04
6150;BME280;3106;42.670;23.318;2022-10-30T00:23:10;95212.69;;;10.50;97.71
6150;BME280;3106;42.670;23.318;2022-10-30T00:25:37;95204.69;;;10.50;97.72
6150;BME280;3106;42.670;23.318;2022-10-30T00:28:05;95190.72;;;10.36;97.75
6150;BME280;3106;42.670;23.318;2022-10-30T00:30:33;95205.63;;;10.46;98.07
6150;BME280;3106;42.670;23.318;2022-10-30T00:33:04;95195.94;;;10.41;98.21
6150;BME280;3106;42.670;23.318;2022-10-30T00:35:31;95195.13;;;10.41;98.66
6150;BME280;3106;42.670;23.318;2022-10-30T00:37:58;95202.41;;;10.32;99.29
6150;BME280;3106;42.670;23.318;2022-10-30T00:40:25;95178.84;;;10.25;99.55
6150;BME280;3106;42.670;23.318;2022-10-30T00:42:52;95201.13;;;10.38;99.38
6150;BME280;3106;42.670;23.318;2022-10-30T00:45:19;95187.28;;;10.36;98.87
6150;BME280;3106;42.670;23.318;2022-10-30T00:47:51;95203.47;;;10.39;99.06
6150;BME280;3106;42.670;23.318;2022-10-30T00:50:23;95194.97;;;10.37;98.85
6150;BME280;3106;42.670;23.318;2022-10-30T00:52:54;95189.50;;;10.34;99.21
6150;BME280;3106;42.670;23.318;2022-10-30T00:55:28;95185.63;;;10.23;99.48
6150;BME280;3106;42.670;23.318;2022-10-30T00:57:58;95193.41;;;10.36;99.73
6150;BME280;3106;42.670;23.318;2022-10-30T01:00:28;95167.22;;;10.21;99.55
6150;BME280;3106;42.670;23.318;2022-10-30T01:02:56;95166.31;;;10.17;100.00
6150;BME280;3106;42.670;23.318;2022-10-30T01:05:27;95184.19;;;10.25;99.96
6150;BME280;3106;42.670;23.318;2022-10-30T01:07:56;95149.72;;;10.03;100.00
6150;BME280;3106;42.670;23.318;2022-10-30T01:10:23;95151.88;;;10.10;99.99
6150;BME280;3106;42.670;23.318;2022-10-30T01:12:52;95177.44;;;10.28;99.98
6150;BME280;3106;42.670;23.318;2022-10-30T01:15:25;95176.44;;;10.32;99.37
6150;BME280;3106;42.670;23.318;2022-10-30T01:18:07;95167.66;;;10.32;99.24
6150;BME280;3106;42.670;23.318;2022-10-30T01:20:55;95155.78;;;10.21;99.41
6150;BME280;3106;42.670;23.318;2022-10-30T01:24:16;95152.16;;;10.17;99.60
6150;BME280;3106;42.670;23.318;2022-10-30T01:26:50;95136.81;;;10.05;99.58
6150;BME280;3106;42.670;23.318;2022-10-30T01:29:26;95128.00;;;9.96;99.46
6150;BME280;3106;42.670;23.318;2022-10-30T01:32:11;95139.66;;;9.92;100.00
6150;BME280;3106;42.670;23.318;2022-10-30T01:34:44;95166.66;;;10.07;100.00
6150;BME280;3106;42.670;23.318;2022-10-30T01:37:18;95154.88;;;10.00;100.00
6150;BME280;3106;42.670;23.318;2022-10-30T01:39:47;95131.84;;;9.78;100.00
6150;BME280;3106;42.670;23.318;2022-10-30T01:42:46;95155.69;;;9.92;100.00
6150;BME280;3106;42.670;23.318;2022-10-30T01:45:17;95156.75;;;9.99;100.00
6150;BME280;3106;42.670;23.318;2022-10-30T01:47:54;95143.09;;;9.92;100.00
6150;BME280;3106;42.670;23.318;2022-10-30T01:50:30;95151.28;;;9.96;100.00
6150;BME280;3106;42.670;23.318;2022-10-30T01:53:04;95143.28;;;9.87;100.00
6150;BME280;3106;42.670;23.318;2022-10-30T01:55:36;95141.88;;;9.90;100.00
6150;BME280;3106;42.670;23.318;2022-10-30T01:58:07;95144.53;;;9.90;100.00
6150;BME280;3106;42.670;23.318;2022-10-30T02:00:39;95142.66;;;9.90;100.00
6150;BME280;3106;42.670;23.318;2022-10-30T02:03:08;95138.13;;;9.74;100.00
6150;BME280;3106;42.670;23.318;2022-10-30T02:05:37;95124.81;;;9.65;100.00
6150;BME280;3106;42.670;23.318;2022-10-30T02:08:06;95130.78;;;9.62;100.00
6150;BME280;3106;42.670;23.318;2022-10-30T02:10:34;95119.34;;;9.62;100.00
6150;BME280;3106;42.670;23.318;2022-10-30T02:13:03;95111.03;;;9.55;100.00
6150;BME280;3106;42.670;23.318;2022-10-30T02:15:30;95142.88;;;9.68;100.00
6150;BME280;3106;42.670;23.318;2022-10-30T02:17:58;95123.59;;;9.54;100.00
6150;BME280;3106;42.670;23.318;2022-10-30T02:20:27;95127.81;;;9.55;100.00
6150;BME280;3106;42.670;23.318;2022-10-30T02:22:54;95127.53;;;9.57;100.00
6150;BME280;3106;42.670;23.318;2022-10-30T02:25:20;95140.81;;;9.65;100.00
6150;BME280;3106;42.670;23.318;2022-10-30T02:27:47;95130.50;;;9.55;100.00
6150;BME280;3106;42.670;23.318;2022-10-30T02:30:15;95130.38;;;9.52;100.00
6150;BME280;3106;42.670;23.318;2022-10-30T02:32:41;95102.44;;;9.41;100.00
6150;BME280;3106;42.670;23.318;2022-10-30T02:35:08;95121.25;;;9.44;100.00
6150;BME280;3106;42.670;23.318;2022-10-30T02:37:37;95114.19;;;9.48;100.00
6150;BME280;3106;42.670;23.318;2022-10-30T02:40:05;95121.38;;;9.56;100.00
6150;BME280;3106;42.670;23.318;2022-10-30T02:42:33;95103.06;;;9.46;100.00
6150;BME280;3106;42.670;23.318;2022-10-30T02:45:01;95131.75;;;9.66;100.00
6150;BME280;3106;42.670;23.318;2022-10-30T02:47:31;95118.59;;;9.53;100.00
6150;BME280;3106;42.670;23.318;2022-10-30T02:49:58;95111.81;;;9.47;100.00
6150;BME280;3106;42.670;23.318;2022-10-30T02:52:25;95125.34;;;9.50;100.00
6150;BME280;3106;42.670;23.318;2022-10-30T02:54:53;95131.13;;;9.52;100.00
6150;BME280;3106;42.670;23.318;2022-10-30T02:57:20;95139.13;;;9.61;100.00
6150;BME280;3106;42.670;23.318;2022-10-30T02:59:47;95120.16;;;9.45;100.00
6150;BME280;3106;42.670;23.318;2022-10-30T03:02:13;95135.38;;;9.53;100.00
6150;BME280;3106;42.670;23.318;2022-10-30T03:04:40;95140.53;;;9.58;100.00
6150;BME280;3106;42.670;23.318;2022-10-30T03:07:07;95123.28;;;9.47;100.00
6150;BME280;3106;42.670;23.318;2022-10-30T03:09:34;95117.69;;;9.32;100.00
6150;BME280;3106;42.670;23.318;2022-10-30T03:12:02;95132.56;;;9.41;100.00
6150;BME280;3106;42.670;23.318;2022-10-30T03:14:29;95140.72;;;9.45;100.00
6150;BME280;3106;42.670;23.318;2022-10-30T03:16:56;95143.53;;;9.48;100.00
6150;BME280;3106;42.670;23.318;2022-10-30T03:19:23;95151.84;;;9.47;100.00
6150;BME280;3106;42.670;23.318;2022-10-30T03:21:50;95153.28;;;9.44;100.00
6150;BME280;3106;42.670;23.318;2022-10-30T03:24:20;95141.97;;;9.39;100.00
6150;BME280;3106;42.670;23.318;2022-10-30T03:30:18;95149.34;;;9.50;100.00
6150;BME280;3106;42.670;23.318;2022-10-30T03:32:45;95146.84;;;9.45;100.00
6150;BME280;3106;42.670;23.318;2022-10-30T03:35:12;95148.59;;;9.41;100.00
6150;BME280;3106;42.670;23.318;2022-10-30T03:37:39;95128.50;;;9.27;100.00
6150;BME280;3106;42.670;23.318;2022-10-30T03:40:07;95155.03;;;9.40;100.00
6150;BME280;3106;42.670;23.318;2022-10-30T03:42:38;95158.16;;;9.42;100.00
6150;BME280;3106;42.670;23.318;2022-10-30T03:45:06;95142.31;;;9.37;100.00
6150;BME280;3106;42.670;23.318;2022-10-30T03:47:36;95155.66;;;9.37;100.00
6150;BME280;3106;42.670;23.318;2022-10-30T03:50:05;95149.69;;;9.32;100.00
6150;BME280;3106;42.670;23.318;2022-10-30T03:52:32;95149.38;;;9.33;100.00
6150;BME280;3106;42.670;23.318;2022-10-30T03:55:01;95151.72;;;9.26;100.00
6150;BME280;3106;42.670;23.318;2022-10-30T03:57:28;95129.63;;;9.17;100.00
6150;BME280;3106;42.670;23.318;2022-10-30T03:59:58;95147.66;;;9.29;100.00
6150;BME280;3106;42.670;23.318;2022-10-30T04:02:25;95140.28;;;9.26;100.00
6150;BME280;3106;42.670;23.318;2022-10-30T04:04:53;95118.00;;;9.13;100.00
6150;BME280;3106;42.670;23.318;2022-10-30T04:07:20;95136.22;;;9.20;100.00
6150;BME280;3106;42.670;23.318;2022-10-30T04:09:47;95127.41;;;9.19;100.00
6150;BME280;3106;42.670;23.318;2022-10-30T04:12:14;95121.63;;;9.17;100.00
6150;BME280;3106;42.670;23.318;2022-10-30T04:14:40;95142.16;;;9.25;100.00
6150;BME280;3106;42.670;23.318;2022-10-30T04:17:07;95120.50;;;9.10;100.00
6150;BME280;3106;42.670;23.318;2022-10-30T04:19:34;95141.22;;;9.21;100.00
6150;BME280;3106;42.670;23.318;2022-10-30T04:22:03;95132.28;;;9.26;100.00
6150;BME280;3106;42.670;23.318;2022-10-30T04:24:29;95128.34;;;9.23;100.00
6150;BME280;3106;42.670;23.318;2022-10-30T04:26:56;95126.47;;;9.15;100.00
6150;BME280;3106;42.670;23.318;2022-10-30T04:29:23;95122.25;;;9.14;100.00
6150;BME280;3106;42.670;23.318;2022-10-30T04:31:50;95113.00;;;9.03;100.00
6150;BME280;3106;42.670;23.318;2022-10-30T04:34:17;95118.97;;;9.00;100.00
6150;BME280;3106;42.670;23.318;2022-10-30T04:36:43;95104.38;;;8.98;100.00
6150;BME280;3106;42.670;23.318;2022-10-30T04:39:12;95123.84;;;8.98;100.00
6150;BME280;3106;42.670;23.318;2022-10-30T04:41:38;95140.16;;;9.05;100.00
6150;BME280;3106;42.670;23.318;2022-10-30T04:44:05;95141.25;;;9.04;100.00
6150;BME280;3106;42.670;23.318;2022-10-30T04:46:32;95132.75;;;8.86;100.00
6150;BME280;3106;42.670;23.318;2022-10-30T04:48:59;95130.72;;;8.83;100.00
6150;BME280;3106;42.670;23.318;2022-10-30T04:51:25;95152.25;;;8.95;100.00
6150;BME280;3106;42.670;23.318;2022-10-30T04:53:52;95123.53;;;8.83;100.00
6150;BME280;3106;42.670;23.318;2022-10-30T04:56:21;95126.19;;;8.83;100.00
6150;BME280;3106;42.670;23.318;2022-10-30T04:58:48;95151.59;;;8.98;100.00
6150;BME280;3106;42.670;23.318;2022-10-30T05:01:14;95152.06;;;8.91;100.00
6150;BME280;3106;42.670;23.318;2022-10-30T05:03:41;95153.34;;;8.94;100.00
6150;BME280;3106;42.670;23.318;2022-10-30T05:06:16;95153.94;;;8.91;100.00
6150;BME280;3106;42.670;23.318;2022-10-30T05:08:45;95137.31;;;8.85;100.00
6150;BME280;3106;42.670;23.318;2022-10-30T05:11:12;95143.72;;;8.93;100.00
6150;BME280;3106;42.670;23.318;2022-10-30T05:13:40;95159.25;;;8.91;100.00
6150;BME280;3106;42.670;23.318;2022-10-30T05:16:07;95143.28;;;8.82;100.00
6150;BME280;3106;42.670;23.318;2022-10-30T05:18:33;95169.47;;;8.97;100.00
6150;BME280;3106;42.670;23.318;2022-10-30T05:21:00;95166.81;;;9.05;100.00
6150;BME280;3106;42.670;23.318;2022-10-30T05:23:27;95155.06;;;9.06;100.00
6150;BME280;3106;42.670;23.318;2022-10-30T05:25:54;95160.88;;;9.17;100.00
6150;BME280;3106;42.670;23.318;2022-10-30T05:28:21;95156.28;;;9.17;100.00
6150;BME280;3106;42.670;23.318;2022-10-30T05:30:51;95144.69;;;9.13;100.00
6150;BME280;3106;42.670;23.318;2022-10-30T05:33:19;95168.22;;;9.11;100.00
6150;BME280;3106;42.670;23.318;2022-10-30T05:35:45;95157.41;;;9.16;100.00
6150;BME280;3106;42.670;23.318;2022-10-30T05:38:12;95157.53;;;9.28;100.00
6150;BME280;3106;42.670;23.318;2022-10-30T05:40:39;95156.94;;;9.31;100.00
6150;BME280;3106;42.670;23.318;2022-10-30T05:43:06;95165.38;;;9.50;100.00
6150;BME280;3106;42.670;23.318;2022-10-30T05:45:33;95165.03;;;9.60;100.00
6150;BME280;3106;42.670;23.318;2022-10-30T05:48:03;95158.91;;;9.68;100.00
6150;BME280;3106;42.670;23.318;2022-10-30T05:50:31;95145.56;;;9.68;100.00
6150;BME280;3106;42.670;23.318;2022-10-30T05:52:59;95145.41;;;9.65;100.00
6150;BME280;3106;42.670;23.318;2022-10-30T05:55:27;95154.78;;;9.79;100.00
6150;BME280;3106;42.670;23.318;2022-10-30T05:58:04;95149.44;;;9.88;100.00
6150;BME280;3106;42.670;23.318;2022-10-30T06:00:33;95134.84;;;9.77;100.00
6150;BME280;3106;42.670;23.318;2022-10-30T06:03:03;95161.34;;;9.90;100.00
6150;BME280;3106;42.670;23.318;2022-10-30T06:05:33;95146.56;;;9.93;99.88
6150;BME280;3106;42.670;23.318;2022-10-30T06:08:01;95167.59;;;10.11;99.49
6150;BME280;3106;42.670;23.318;2022-10-30T06:10:28;95132.88;;;9.94;99.36
6150;BME280;3106;42.670;23.318;2022-10-30T06:12:57;95104.31;;;9.95;99.48
6150;BME280;3106;42.670;23.318;2022-10-30T06:15:25;95155.72;;;10.29;99.17
6150;BME280;3106;42.670;23.318;2022-10-30T06:17:52;95158.81;;;10.40;98.29
6150;BME280;3106;42.670;23.318;2022-10-30T06:20:23;95144.81;;;10.43;98.10
6150;BME280;3106;42.670;23.318;2022-10-30T06:22:53;95164.63;;;10.70;97.62
6150;BME280;3106;42.670;23.318;2022-10-30T06:25:20;95154.53;;;10.76;97.12
6150;BME280;3106;42.670;23.318;2022-10-30T06:27:47;95157.31;;;10.79;96.45
6150;BME280;3106;42.670;23.318;2022-10-30T06:30:14;95159.94;;;10.88;96.05
6150;BME280;3106;42.670;23.318;2022-10-30T06:32:41;95163.16;;;10.73;96.05
6150;BME280;3106;42.670;23.318;2022-10-30T06:35:08;95143.19;;;10.79;96.21
6150;BME280;3106;42.670;23.318;2022-10-30T06:37:39;95155.34;;;10.88;95.24
6150;BME280;3106;42.670;23.318;2022-10-30T06:40:11;95124.28;;;10.55;95.35
6150;BME280;3106;42.670;23.318;2022-10-30T06:42:42;95149.19;;;10.76;95.28
6150;BME280;3106;42.670;23.318;2022-10-30T06:45:23;95171.50;;;11.00;95.60
6150;BME280;3106;42.670;23.318;2022-10-30T06:47:50;95161.72;;;11.04;95.50
6150;BME280;3106;42.670;23.318;2022-10-30T06:50:19;95175.81;;;11.13;95.25
6150;BME280;3106;42.670;23.318;2022-10-30T06:52:47;95160.72;;;11.09;94.97
6150;BME280;3106;42.670;23.318;2022-10-30T06:55:14;95175.13;;;11.37;94.79
6150;BME280;3106;42.670;23.318;2022-10-30T06:57:41;95184.22;;;11.44;94.27
6150;BME280;3106;42.670;23.318;2022-10-30T07:00:09;95160.91;;;11.24;94.43
6150;BME280;3106;42.670;23.318;2022-10-30T07:02:37;95178.22;;;11.27;94.67
6150;BME280;3106;42.670;23.318;2022-10-30T07:05:04;95159.44;;;11.15;95.95
6150;BME280;3106;42.670;23.318;2022-10-30T07:07:31;95183.25;;;11.49;95.64
6150;BME280;3106;42.670;23.318;2022-10-30T07:09:59;95158.38;;;11.28;94.27
6150;BME280;3106;42.670;23.318;2022-10-30T07:12:26;95175.94;;;11.37;94.52
6150;BME280;3106;42.670;23.318;2022-10-30T07:14:53;95192.78;;;11.58;93.94
6150;BME280;3106;42.670;23.318;2022-10-30T07:20:06;95143.69;;;11.66;92.06
6150;BME280;3106;42.670;23.318;2022-10-30T07:22:33;95163.31;;;11.91;91.88
6150;BME280;3106;42.670;23.318;2022-10-30T07:25:01;95153.06;;;12.04;91.47
6150;BME280;3106;42.670;23.318;2022-10-30T07:27:28;95164.81;;;12.36;91.40
6150;BME280;3106;42.670;23.318;2022-10-30T07:29:55;95152.75;;;12.42;90.18
6150;BME280;3106;42.670;23.318;2022-10-30T07:32:22;95142.03;;;12.54;90.43
6150;BME280;3106;42.670;23.318;2022-10-30T07:34:51;95129.50;;;12.58;89.78
6150;BME280;3106;42.670;23.318;2022-10-30T07:54:44;95145.00;;;14.10;87.23
6150;BME280;3106;42.670;23.318;2022-10-30T07:57:11;95138.88;;;14.25;86.24
6150;BME280;3106;42.670;23.318;2022-10-30T07:59:38;95147.53;;;14.49;85.67
6150;BME280;3106;42.670;23.318;2022-10-30T08:02:05;95122.00;;;14.59;84.83
6150;BME280;3106;42.670;23.318;2022-10-30T08:04:36;95123.13;;;14.73;83.51
6150;BME280;3106;42.670;23.318;2022-10-30T08:07:19;95150.22;;;15.14;82.58
6150;BME280;3106;42.670;23.318;2022-10-30T08:10:07;95131.84;;;15.20;81.64
6150;BME280;3106;42.670;23.318;2022-10-30T08:12:35;95112.00;;;15.28;80.63
6150;BME280;3106;42.670;23.318;2022-10-30T08:15:03;95122.19;;;15.53;80.09
6150;BME280;3106;42.670;23.318;2022-10-30T08:17:30;95128.00;;;15.55;79.15
6150;BME280;3106;42.670;23.318;2022-10-30T08:19:56;95100.81;;;15.45;79.35
6150;BME280;3106;42.670;23.318;2022-10-30T08:22:23;95107.72;;;15.27;79.57
6150;BME280;3106;42.670;23.318;2022-10-30T08:24:50;95119.91;;;15.36;79.70
6150;BME280;3106;42.670;23.318;2022-10-30T08:27:18;95120.59;;;15.33;80.27
6150;BME280;3106;42.670;23.318;2022-10-30T08:29:45;95126.84;;;15.37;80.34
6150;BME280;3106;42.670;23.318;2022-10-30T08:32:12;95117.72;;;15.42;80.29
6150;BME280;3106;42.670;23.318;2022-10-30T08:34:39;95108.13;;;15.44;80.23
6150;BME280;3106;42.670;23.318;2022-10-30T08:37:06;95130.59;;;15.71;79.37
6150;BME280;3106;42.670;23.318;2022-10-30T08:39:33;95110.84;;;15.67;79.09
6150;BME280;3106;42.670;23.318;2022-10-30T08:42:03;95132.38;;;15.63;80.08
6150;BME280;3106;42.670;23.318;2022-10-30T08:44:32;95105.59;;;15.51;80.11
6150;BME280;3106;42.670;23.318;2022-10-30T08:46:59;95085.84;;;15.47;80.41
6150;BME280;3106;42.670;23.318;2022-10-30T08:49:27;95121.84;;;15.77;79.75
6150;BME280;3106;42.670;23.318;2022-10-30T08:51:54;95104.84;;;15.96;78.76
6150;BME280;3106;42.670;23.318;2022-10-30T09:08:10;95097.47;;;17.12;73.62
6150;BME280;3106;42.670;23.318;2022-10-30T09:10:39;95099.00;;;17.39;72.96
6150;BME280;3106;42.670;23.318;2022-10-30T09:13:05;95104.81;;;17.41;72.40
6150;BME280;3106;42.670;23.318;2022-10-30T09:15:32;95071.59;;;17.11;72.86
6150;BME280;3106;42.670;23.318;2022-10-30T09:18:01;95094.75;;;17.41;72.08
6150;BME280;3106;42.670;23.318;2022-10-30T09:20:42;95099.41;;;17.41;71.86
6150;BME280;3106;42.670;23.318;2022-10-30T09:23:11;95099.34;;;17.37;71.78
6150;BME280;3106;42.670;23.318;2022-10-30T09:25:37;95109.47;;;17.44;71.79
6150;BME280;3106;42.670;23.318;2022-10-30T09:28:04;95087.56;;;17.23;72.25
6150;BME280;3106;42.670;23.318;2022-10-30T09:30:31;95096.19;;;17.65;71.59
6150;BME280;3106;42.670;23.318;2022-10-30T09:32:59;95096.84;;;17.88;70.11
6150;BME280;3106;42.670;23.318;2022-10-30T09:35:28;95095.00;;;17.95;69.50
6150;BME280;3106;42.670;23.318;2022-10-30T09:37:55;95075.94;;;17.85;69.23
6150;BME280;3106;42.670;23.318;2022-10-30T09:40:56;95062.81;;;17.87;69.40
6150;BME280;3106;42.670;23.318;2022-10-30T09:43:38;95057.19;;;18.02;68.54
6150;BME280;3106;42.670;23.318;2022-10-30T09:46:33;95058.09;;;18.17;68.32
6150;BME280;3106;42.670;23.318;2022-10-30T09:49:23;95064.97;;;18.50;67.56
6150;BME280;3106;42.670;23.318;2022-10-30T09:55:09;95061.06;;;19.09;64.76
6150;BME280;3106;42.670;23.318;2022-10-30T09:57:45;95065.88;;;19.36;64.47
6150;BME280;3106;42.670;23.318;2022-10-30T10:00:15;95038.22;;;19.13;63.88
6150;BME280;3106;42.670;23.318;2022-10-30T10:02:55;95056.22;;;19.49;63.08
6150;BME280;3106;42.670;23.318;2022-10-30T10:05:26;95032.25;;;19.51;62.06
6150;BME280;3106;42.670;23.318;2022-10-30T10:07:56;95033.06;;;19.80;61.09
6150;BME280;3106;42.670;23.318;2022-10-30T10:10:34;95014.06;;;19.69;61.27
6150;BME280;3106;42.670;23.318;2022-10-30T10:13:04;95021.91;;;20.09;60.71
6150;BME280;3106;42.670;23.318;2022-10-30T10:15:40;95019.06;;;19.60;60.64
6150;BME280;3106;42.670;23.318;2022-10-30T10:18:15;95013.66;;;19.64;60.33
6150;BME280;3106;42.670;23.318;2022-10-30T10:20:47;95022.63;;;19.95;59.95
6150;BME280;3106;42.670;23.318;2022-10-30T10:23:17;94996.63;;;19.84;59.52
6150;BME280;3106;42.670;23.318;2022-10-30T10:25:53;94987.34;;;19.88;58.73
6150;BME280;3106;42.670;23.318;2022-10-30T10:28:41;94999.78;;;20.21;58.54
6150;BME280;3106;42.670;23.318;2022-10-30T10:31:19;95015.72;;;20.26;57.84
6150;BME280;3106;42.670;23.318;2022-10-30T10:33:58;95007.91;;;20.21;58.02
6150;BME280;3106;42.670;23.318;2022-10-30T10:36:34;94990.84;;;20.34;57.84
6150;BME280;3106;42.670;23.318;2022-10-30T10:39:16;94982.69;;;20.55;57.38
6150;BME280;3106;42.670;23.318;2022-10-30T10:41:54;94984.59;;;20.69;56.65
6150;BME280;3106;42.670;23.318;2022-10-30T10:44:34;94965.59;;;20.62;56.21
6150;BME280;3106;42.670;23.318;2022-10-30T10:47:24;94984.59;;;20.79;55.94
6150;BME280;3106;42.670;23.318;2022-10-30T10:50:18;94978.78;;;20.84;55.70
6150;BME280;3106;42.670;23.318;2022-10-30T10:53:28;94974.91;;;20.68;55.34
6150;BME280;3106;42.670;23.318;2022-10-30T10:55:57;94979.50;;;20.99;53.96
6150;BME280;3106;42.670;23.318;2022-10-30T10:58:29;94974.06;;;20.99;51.98
6150;BME280;3106;42.670;23.318;2022-10-30T11:00:59;94979.09;;;21.00;51.52
6150;BME280;3106;42.670;23.318;2022-10-30T11:03:31;94958.13;;;21.01;51.15
6150;BME280;3106;42.670;23.318;2022-10-30T11:06:12;94962.34;;;21.19;50.03
6150;BME280;3106;42.670;23.318;2022-10-30T11:08:44;94948.31;;;21.21;50.67
6150;BME280;3106;42.670;23.318;2022-10-30T11:11:13;94932.41;;;21.16;48.88
6150;BME280;3106;42.670;23.318;2022-10-30T11:13:41;94947.47;;;21.31;48.84
6150;BME280;3106;42.670;23.318;2022-10-30T11:16:19;94941.13;;;21.61;48.49
6150;BME280;3106;42.670;23.318;2022-10-30T11:18:53;94917.81;;;21.53;47.64
6150;BME280;3106;42.670;23.318;2022-10-30T11:23:56;94935.53;;;21.82;46.79
6150;BME280;3106;42.670;23.318;2022-10-30T11:26:26;94925.41;;;21.86;46.76
6150;BME280;3106;42.670;23.318;2022-10-30T11:28:56;94909.13;;;21.79;46.07
6150;BME280;3106;42.670;23.318;2022-10-30T11:31:42;94934.31;;;22.34;45.29
6150;BME280;3106;42.670;23.318;2022-10-30T11:34:17;94917.09;;;22.48;44.95
6150;BME280;3106;42.670;23.318;2022-10-30T11:37:06;94924.50;;;22.84;44.67
6150;BME280;3106;42.670;23.318;2022-10-30T11:40:16;94907.97;;;22.95;43.57
6150;BME280;3106;42.670;23.318;2022-10-30T11:46:06;94907.81;;;23.08;43.56
6150;BME280;3106;42.670;23.318;2022-10-30T11:52:00;94913.81;;;22.97;43.30
6150;BME280;3106;42.670;23.318;2022-10-30T11:54:28;94905.25;;;22.95;43.44
6150;BME280;3106;42.670;23.318;2022-10-30T11:56:55;94907.19;;;22.98;42.52
6150;BME280;3106;42.670;23.318;2022-10-30T12:02:50;94888.03;;;23.01;43.25
6150;BME280;3106;42.670;23.318;2022-10-30T12:05:29;94895.53;;;23.27;42.96
6150;BME280;3106;42.670;23.318;2022-10-30T12:08:19;94885.53;;;23.17;40.96
6150;BME280;3106;42.670;23.318;2022-10-30T12:10:57;94876.53;;;23.20;41.31
6150;BME280;3106;42.670;23.318;2022-10-30T12:13:36;94903.72;;;23.27;41.73
6150;BME280;3106;42.670;23.318;2022-10-30T12:19:05;94877.41;;;23.10;41.42
6150;BME280;3106;42.670;23.318;2022-10-30T12:21:48;94886.75;;;23.09;41.92
6150;BME280;3106;42.670;23.318;2022-10-30T12:24:34;94883.19;;;23.15;41.76
6150;BME280;3106;42.670;23.318;2022-10-30T12:27:04;94869.97;;;23.14;41.65
6150;BME280;3106;42.670;23.318;2022-10-30T12:29:38;94880.84;;;23.17;41.04
6150;BME280;3106;42.670;23.318;2022-10-30T12:32:13;94875.16;;;23.31;41.08
6150;BME280;3106;42.670;23.318;2022-10-30T12:45:06;94873.22;;;23.58;40.52
6150;BME280;3106;42.670;23.318;2022-10-30T12:47:41;94839.72;;;23.58;40.10
6150;BME280;3106;42.670;23.318;2022-10-30T12:50:17;94868.94;;;23.84;39.75
6150;BME280;3106;42.670;23.318;2022-10-30T12:52:48;94848.72;;;23.78;39.42
6150;BME280;3106;42.670;23.318;2022-10-30T12:55:23;94863.84;;;24.09;39.21
6150;BME280;3106;42.670;23.318;2022-10-30T12:57:56;94864.69;;;24.48;38.71
6150;BME280;3106;42.670;23.318;2022-10-30T13:00:27;94870.22;;;24.45;37.52
6150;BME280;3106;42.670;23.318;2022-10-30T13:02:59;94853.78;;;24.48;36.90
6150;BME280;3106;42.670;23.318;2022-10-30T13:05:32;94847.50;;;24.48;36.86
6150;BME280;3106;42.670;23.318;2022-10-30T13:08:17;94847.50;;;24.70;36.00
6150;BME280;3106;42.670;23.318;2022-10-30T13:10:49;94849.94;;;24.84;36.06
6150;BME280;3106;42.670;23.318;2022-10-30T13:13:22;94831.81;;;24.90;35.89
6150;BME280;3106;42.670;23.318;2022-10-30T13:15:53;94832.63;;;24.71;35.62
6150;BME280;3106;42.670;23.318;2022-10-30T13:18:22;94831.63;;;24.81;35.18
6150;BME280;3106;42.670;23.318;2022-10-30T13:21:00;94855.38;;;25.23;34.74
6150;BME280;3106;42.670;23.318;2022-10-30T13:23:35;94854.13;;;25.28;34.67
6150;BME280;3106;42.670;23.318;2022-10-30T13:26:14;94815.00;;;25.27;34.24
6150;BME280;3106;42.670;23.318;2022-10-30T13:28:46;94802.03;;;25.12;34.51
6150;BME280;3106;42.670;23.318;2022-10-30T13:31:24;94845.13;;;25.27;34.18
6150;BME280;3106;42.670;23.318;2022-10-30T13:34:01;94827.88;;;25.11;34.10
6150;BME280;3106;42.670;23.318;2022-10-30T13:36:35;94849.19;;;25.39;34.16
6150;BME280;3106;42.670;23.318;2022-10-30T13:39:15;94805.13;;;25.14;34.08
6150;BME280;3106;42.670;23.318;2022-10-30T13:41:57;94846.94;;;25.34;34.51
6150;BME280;3106;42.670;23.318;2022-10-30T13:44:34;94841.75;;;25.39;34.06
6150;BME280;3106;42.670;23.318;2022-10-30T13:47:16;94829.34;;;25.15;34.03
6150;BME280;3106;42.670;23.318;2022-10-30T13:50:01;94830.75;;;25.04;34.61
6150;BME280;3106;42.670;23.318;2022-10-30T13:52:34;94824.53;;;24.45;36.04
6150;BME280;3106;42.670;23.318;2022-10-30T13:55:12;94819.38;;;24.08;36.61
6150;BME280;3106;42.670;23.318;2022-10-30T13:57:45;94846.00;;;23.78;37.41
6150;BME280;3106;42.670;23.318;2022-10-30T14:00:17;94823.16;;;23.42;38.24
6150;BME280;3106;42.670;23.318;2022-10-30T14:03:09;94836.53;;;23.36;38.64
6150;BME280;3106;42.670;23.318;2022-10-30T14:05:44;94833.81;;;23.06;39.30
6150;BME280;3106;42.670;23.318;2022-10-30T14:08:23;94845.56;;;23.00;39.78
6150;BME280;3106;42.670;23.318;2022-10-30T15:28:33;94840.03;;;20.05;53.40
6150;BME280;3106;42.670;23.318;2022-10-30T15:31:03;94810.91;;;19.85;53.65
6150;BME280;3106;42.670;23.318;2022-10-30T15:33:34;94814.41;;;19.82;53.64
6150;BME280;3106;42.670;23.318;2022-10-30T15:36:02;94838.47;;;19.94;53.61
6150;BME280;3106;42.670;23.318;2022-10-30T15:38:29;94843.09;;;19.97;53.93
6150;BME280;3106;42.670;23.318;2022-10-30T15:40:58;94842.72;;;19.91;54.61
6150;BME280;3106;42.670;23.318;2022-10-30T15:43:29;94819.09;;;19.71;54.76
6150;BME280;3106;42.670;23.318;2022-10-30T15:46:01;94847.00;;;19.89;54.97
6150;BME280;3106;42.670;23.318;2022-10-30T15:48:34;94861.31;;;19.96;55.35
6150;BME280;3106;42.670;23.318;2022-10-30T15:51:06;94841.56;;;19.75;55.88
6150;BME280;3106;42.670;23.318;2022-10-30T15:53:36;94849.72;;;19.72;56.20
6150;BME280;3106;42.670;23.318;2022-10-30T15:56:06;94845.47;;;19.60;56.66